createdAt,value
2023-10-16T00:00:16.963Z,15.50
2023-10-16T00:01:16.947Z,17.70
2023-10-16T00:02:16.900Z,17.39
2023-10-16T00:03:16.949Z,22.10
2023-10-16T00:04:16.934Z,21.70
2023-10-16T00:05:16.874Z,20.79
2023-10-16T00:06:16.878Z,21.00
2023-10-16T00:07:16.851Z,24.70
2023-10-16T00:08:16.834Z,16.00
2023-10-16T00:09:17.086Z,15.89
2023-10-16T00:10:16.819Z,15.50
2023-10-16T00:11:16.802Z,24.70
2023-10-16T00:12:16.880Z,24.79
2023-10-16T00:13:16.802Z,15.60
2023-10-16T00:14:16.792Z,15.10
2023-10-16T00:15:16.822Z,14.89
2023-10-16T00:16:16.836Z,10.60
2023-10-16T00:17:16.762Z,15.60
2023-10-16T00:18:16.913Z,19.79
2023-10-16T00:19:16.757Z,14.39
2023-10-16T00:20:16.715Z,17.29
2023-10-16T00:21:16.734Z,11.30
2023-10-16T00:22:16.708Z,17.89
2023-10-16T00:24:16.990Z,16.20
2023-10-16T00:25:16.739Z,15.39
2023-10-16T00:26:16.663Z,19.00
2023-10-16T00:27:16.728Z,15.30
2023-10-16T00:28:16.670Z,22.50
2023-10-16T00:29:16.624Z,22.89
2023-10-16T00:30:16.669Z,19.60
2023-10-16T00:31:16.657Z,24.29
2023-10-16T00:32:16.610Z,23.29
2023-10-16T00:33:16.696Z,21.70
2023-10-16T00:34:16.596Z,21.39
2023-10-16T00:35:16.612Z,25.50
2023-10-16T00:36:16.581Z,21.39
2023-10-16T00:37:16.551Z,19.10
2023-10-16T00:38:16.539Z,18.20
2023-10-16T00:39:16.553Z,15.50
2023-10-16T00:40:16.534Z,19.00
2023-10-16T00:41:16.546Z,15.10
2023-10-16T00:42:16.540Z,13.80
2023-10-16T00:44:16.523Z,11.69
2023-10-16T00:45:16.510Z,14.60
2023-10-16T00:46:16.497Z,8.89
2023-10-16T00:48:16.469Z,15.30
2023-10-16T00:54:16.455Z,14.39
2023-10-16T00:57:16.438Z,17.20
2023-10-16T01:00:16.359Z,12.69
2023-10-16T01:01:16.339Z,14.00
2023-10-16T01:02:16.361Z,15.00
2023-10-16T01:03:16.362Z,16.50
2023-10-16T01:04:16.300Z,15.19
2023-10-16T01:05:16.278Z,21.39
2023-10-16T01:06:16.282Z,17.29
2023-10-16T01:07:16.979Z,19.29
2023-10-16T01:10:16.225Z,16.39
2023-10-16T01:13:16.208Z,17.10
2023-10-16T01:16:16.339Z,14.80
2023-10-16T01:17:16.177Z,19.10
2023-10-16T01:18:16.175Z,17.50
2023-10-16T01:19:16.130Z,20.79
2023-10-16T01:20:16.122Z,14.19
2023-10-16T01:21:16.139Z,16.00
2023-10-16T01:22:16.114Z,14.39
2023-10-16T01:23:16.092Z,17.39
2023-10-16T01:26:16.069Z,18.29
2023-10-16T01:27:16.397Z,17.29
2023-10-16T01:28:16.049Z,18.29
2023-10-16T01:29:16.066Z,11.50
2023-10-16T01:30:16.075Z,15.39
2023-10-16T01:31:16.173Z,23.60
2023-10-16T01:33:16.030Z,18.20
2023-10-16T01:34:15.989Z,20.10
2023-10-16T01:35:15.985Z,14.89
2023-10-16T01:39:15.986Z,13.19
2023-10-16T01:43:15.902Z,14.00
2023-10-16T01:46:16.109Z,16.60
2023-10-16T02:11:15.638Z,44.90
2023-10-16T02:12:16.556Z,39.79
2023-10-16T02:13:15.636Z,22.29
2023-10-16T02:14:15.615Z,20.60
2023-10-16T02:16:15.631Z,24.89
2023-10-16T02:19:15.555Z,26.50
2023-10-16T02:20:15.556Z,29.10
2023-10-16T02:23:15.535Z,22.50
2023-10-16T02:24:15.593Z,28.10
2023-10-16T02:27:15.475Z,25.39
2023-10-16T02:28:15.444Z,26.39
2023-10-16T02:29:15.435Z,27.79
2023-10-16T02:31:15.489Z,28.50
2023-10-16T02:32:15.410Z,32.70
2023-10-16T02:34:15.388Z,24.60
2023-10-16T02:37:15.897Z,23.89
2023-10-16T02:43:15.343Z,26.00
2023-10-16T03:17:14.969Z,11.60
2023-10-16T03:18:15.009Z,18.29
2023-10-16T03:26:14.881Z,9.80
2023-10-16T03:27:14.876Z,17.89
2023-10-16T03:28:14.875Z,16.89
2023-10-16T03:29:14.882Z,18.50
2023-10-16T03:30:14.852Z,13.10
2023-10-16T03:33:14.914Z,17.79
2023-10-16T03:36:14.792Z,14.69
2023-10-16T03:38:14.786Z,13.69
2023-10-16T03:39:14.756Z,18.29
2023-10-16T03:40:15.024Z,18.89
2023-10-16T03:41:14.746Z,26.89
2023-10-16T03:42:14.724Z,22.39
2023-10-16T03:43:14.717Z,21.79
2023-10-16T03:44:14.726Z,26.50
2023-10-16T03:45:14.735Z,28.10
2023-10-16T03:46:14.762Z,21.00
2023-10-16T03:47:14.690Z,19.39
2023-10-16T03:48:14.669Z,24.10
2023-10-16T03:49:14.683Z,25.89
2023-10-16T03:50:14.648Z,32.20
2023-10-16T03:51:14.648Z,46.29
2023-10-16T03:52:14.625Z,64.19
2023-10-16T03:53:14.859Z,33.70
2023-10-16T03:54:14.609Z,30.79
2023-10-16T03:55:14.730Z,38.50
2023-10-16T03:56:14.625Z,48.59
2023-10-16T03:57:17.509Z,34.90
2023-10-16T03:58:14.579Z,38.90
2023-10-16T03:59:14.567Z,54.20
2023-10-16T04:00:14.549Z,50.70
2023-10-16T04:01:14.548Z,44.79
2023-10-16T04:02:14.522Z,37.59
2023-10-16T04:03:14.551Z,43.00
2023-10-16T04:04:14.843Z,32.09
2023-10-16T04:05:14.508Z,43.40
2023-10-16T04:06:14.498Z,34.50
2023-10-16T04:07:14.492Z,46.90
2023-10-16T04:08:14.481Z,43.79
2023-10-16T04:09:14.529Z,45.90
2023-10-16T04:10:14.444Z,74.19
2023-10-16T04:11:14.436Z,58.90
2023-10-16T04:12:14.449Z,53.50
2023-10-16T04:13:14.410Z,49.29
2023-10-16T04:14:14.404Z,70.80
2023-10-16T04:15:14.389Z,75.09
2023-10-16T04:16:14.433Z,82.69
2023-10-16T04:17:14.380Z,82.50
2023-10-16T04:18:14.369Z,51.79
2023-10-16T04:19:14.439Z,41.00
2023-10-16T04:20:14.362Z,33.70
2023-10-16T04:21:14.352Z,41.90
2023-10-16T04:22:14.415Z,52.09
2023-10-16T04:23:14.333Z,53.79
2023-10-16T04:24:14.332Z,38.90
2023-10-16T04:25:14.299Z,49.40
2023-10-16T04:26:14.278Z,63.09
2023-10-16T04:27:14.271Z,59.59
2023-10-16T04:28:14.292Z,49.29
2023-10-16T04:29:14.256Z,61.50
2023-10-16T04:30:14.240Z,54.90
2023-10-16T04:31:14.298Z,39.20
2023-10-16T04:32:14.236Z,48.79
2023-10-16T04:33:14.216Z,56.70
2023-10-16T04:34:14.212Z,42.00
2023-10-16T04:35:14.208Z,58.20
2023-10-16T04:36:14.201Z,44.59
2023-10-16T04:37:14.191Z,62.00
2023-10-16T04:38:14.184Z,60.09
2023-10-16T04:39:14.163Z,65.19
2023-10-16T04:40:14.139Z,65.19
2023-10-16T04:41:14.161Z,45.90
2023-10-16T04:42:14.116Z,70.30
2023-10-16T04:43:14.135Z,73.59
2023-10-16T04:44:14.146Z,57.00
2023-10-16T04:45:14.100Z,75.09
2023-10-16T04:46:14.171Z,61.20
2023-10-16T04:47:14.076Z,107.40
2023-10-16T04:48:14.096Z,102.00
2023-10-16T04:49:14.050Z,81.19
2023-10-16T04:50:14.050Z,93.90
2023-10-16T04:51:33.918Z,74.09
2023-10-16T04:52:15.082Z,103.50
2023-10-16T04:53:14.043Z,100.80
2023-10-16T04:54:14.019Z,71.80
2023-10-16T04:55:14.012Z,61.50
2023-10-16T04:56:13.984Z,94.80
2023-10-16T04:57:13.971Z,82.69
2023-10-16T04:58:13.959Z,70.59
2023-10-16T04:59:13.969Z,111.40
2023-10-16T05:00:14.259Z,86.09
2023-10-16T05:01:13.973Z,104.00
2023-10-16T05:02:13.929Z,59.40
2023-10-16T05:03:13.982Z,67.80
2023-10-16T05:04:13.955Z,61.90
2023-10-16T05:05:13.896Z,91.59
2023-10-16T05:06:13.883Z,76.59
2023-10-16T05:07:13.883Z,53.40
2023-10-16T05:08:13.923Z,67.50
2023-10-16T05:09:13.847Z,71.80
2023-10-16T05:10:13.856Z,63.40
2023-10-16T05:11:13.852Z,54.00
2023-10-16T05:12:13.825Z,57.90
2023-10-16T05:13:13.809Z,53.59
2023-10-16T05:14:13.808Z,66.30
2023-10-16T05:15:13.793Z,99.40
2023-10-16T05:16:13.865Z,62.00
2023-10-16T05:17:13.769Z,67.69
2023-10-16T05:18:13.770Z,59.00
2023-10-16T05:19:13.760Z,54.40
2023-10-16T05:20:13.741Z,66.69
2023-10-16T05:21:13.738Z,72.00
2023-10-16T05:22:13.723Z,68.59
2023-10-16T05:23:13.726Z,47.00
2023-10-16T05:24:13.700Z,60.70
2023-10-16T05:25:13.634Z,76.90
2023-10-16T05:26:13.701Z,85.90
2023-10-16T05:27:13.652Z,55.59
2023-10-16T05:28:13.628Z,78.19
2023-10-16T05:29:13.617Z,56.09
2023-10-16T05:30:13.655Z,60.29
2023-10-16T05:31:13.620Z,46.79
2023-10-16T05:32:13.601Z,49.00
2023-10-16T05:33:13.572Z,49.79
2023-10-16T05:34:13.550Z,48.20
2023-10-16T05:35:13.550Z,48.90
2023-10-16T05:36:13.518Z,43.90
2023-10-16T05:37:13.528Z,56.20
2023-10-16T05:38:13.498Z,55.70
2023-10-16T05:39:13.488Z,58.50
2023-10-16T05:40:13.475Z,50.00
2023-10-16T05:41:13.469Z,40.09
2023-10-16T05:42:13.464Z,40.79
2023-10-16T05:43:13.458Z,32.90
2023-10-16T05:44:13.438Z,43.79
2023-10-16T05:45:13.427Z,41.40
2023-10-16T05:46:13.504Z,40.20
2023-10-16T05:47:13.421Z,40.20
2023-10-16T05:48:13.420Z,54.20
2023-10-16T05:49:13.410Z,38.50
2023-10-16T05:50:13.384Z,59.20
2023-10-16T05:51:13.370Z,48.40
2023-10-16T05:52:13.354Z,33.59
2023-10-16T05:53:13.349Z,50.59
2023-10-16T05:54:13.345Z,47.50
2023-10-16T05:55:13.332Z,36.09
2023-10-16T05:56:13.315Z,52.79
2023-10-16T05:57:13.309Z,57.70
2023-10-16T05:58:13.328Z,48.79
2023-10-16T05:59:13.284Z,53.90
2023-10-16T06:00:13.274Z,47.90
2023-10-16T06:01:13.342Z,38.79
2023-10-16T06:02:13.253Z,43.00
2023-10-16T06:03:13.313Z,39.29
2023-10-16T06:04:13.451Z,58.59
2023-10-16T06:05:13.427Z,38.59
2023-10-16T06:06:13.206Z,26.00
2023-10-16T06:07:13.223Z,41.00
2023-10-16T06:08:13.191Z,47.29
2023-10-16T06:09:13.184Z,44.90
2023-10-16T06:10:13.176Z,35.90
2023-10-16T06:11:13.158Z,35.00
2023-10-16T06:12:13.159Z,30.39
2023-10-16T06:13:13.149Z,33.09
2023-10-16T06:14:13.137Z,37.50
2023-10-16T06:15:13.120Z,36.79
2023-10-16T06:16:13.180Z,24.29
2023-10-16T06:17:13.106Z,36.79
2023-10-16T06:18:13.092Z,38.59
2023-10-16T06:19:13.098Z,32.90
2023-10-16T06:20:13.166Z,34.20
2023-10-16T06:21:13.063Z,45.09
2023-10-16T06:22:13.089Z,49.59
2023-10-16T06:23:13.059Z,41.09
2023-10-16T06:24:13.033Z,39.59
2023-10-16T06:25:13.093Z,41.20
2023-10-16T06:26:13.014Z,44.40
2023-10-16T06:27:13.017Z,44.50
2023-10-16T06:28:13.004Z,31.60
2023-10-16T06:29:12.982Z,36.79
2023-10-16T06:30:12.973Z,47.29
2023-10-16T06:31:13.030Z,45.40
2023-10-16T06:32:12.950Z,25.00
2023-10-16T06:33:12.943Z,30.10
2023-10-16T06:34:12.928Z,37.79
2023-10-16T06:35:12.913Z,21.29
2023-10-16T06:36:12.925Z,34.09
2023-10-16T06:37:12.907Z,24.60
2023-10-16T06:38:12.896Z,31.29
2023-10-16T06:39:12.904Z,42.59
2023-10-16T06:40:13.698Z,42.29
2023-10-16T06:41:12.864Z,45.29
2023-10-16T06:42:12.853Z,37.20
2023-10-16T06:43:12.846Z,37.20
2023-10-16T06:44:12.828Z,32.20
2023-10-16T06:45:12.853Z,32.00
2023-10-16T06:46:12.866Z,35.50
2023-10-16T06:47:12.803Z,34.00
2023-10-16T06:48:12.784Z,25.89
2023-10-16T06:49:12.780Z,33.40
2023-10-16T06:50:12.789Z,24.00
2023-10-16T06:51:12.767Z,43.20
2023-10-16T06:52:12.787Z,49.00
2023-10-16T06:53:12.743Z,61.00
2023-10-16T06:54:12.734Z,65.69
2023-10-16T06:55:12.730Z,82.40
2023-10-16T06:56:12.737Z,32.50
2023-10-16T06:57:12.703Z,30.29
2023-10-16T06:58:12.743Z,39.00
2023-10-16T06:59:12.680Z,37.90
2023-10-16T07:00:12.664Z,50.90
2023-10-16T07:01:12.823Z,42.09
2023-10-16T07:02:12.654Z,76.80
2023-10-16T07:03:12.714Z,43.70
2023-10-16T07:04:12.712Z,25.50
2023-10-16T07:05:12.618Z,49.20
2023-10-16T07:06:12.606Z,48.90
2023-10-16T07:07:12.596Z,25.39
2023-10-16T07:08:12.609Z,18.10
2023-10-16T07:09:12.579Z,15.10
2023-10-16T07:10:12.567Z,30.10
2023-10-16T07:11:12.599Z,17.79
2023-10-16T07:12:12.541Z,23.60
2023-10-16T07:13:12.540Z,11.39
2023-10-16T07:14:12.528Z,12.19
2023-10-16T07:15:12.520Z,17.10
2023-10-16T07:16:12.667Z,15.30
2023-10-16T07:17:12.494Z,24.20
2023-10-16T07:18:12.483Z,45.09
2023-10-16T07:19:12.520Z,44.59
2023-10-16T07:20:12.463Z,26.60
2023-10-16T07:21:12.471Z,65.59
2023-10-16T07:22:12.443Z,27.50
2023-10-16T07:23:12.430Z,22.70
2023-10-16T07:24:12.447Z,16.89
2023-10-16T07:25:12.409Z,8.19
2023-10-16T07:26:12.403Z,9.00
2023-10-16T07:27:12.398Z,23.39
2023-10-16T07:28:12.385Z,9.10
2023-10-16T07:29:12.370Z,7.59
2023-10-16T07:30:12.366Z,6.30
2023-10-16T07:31:12.754Z,6.40
2023-10-16T07:32:12.348Z,5.90
2023-10-16T07:33:12.414Z,6.50
2023-10-16T07:34:12.378Z,18.29
2023-10-16T07:35:12.318Z,15.39
2023-10-16T07:36:12.669Z,25.20
2023-10-16T07:37:12.304Z,8.00
2023-10-16T07:38:12.284Z,5.69
2023-10-16T07:39:12.274Z,6.09
2023-10-16T07:40:12.283Z,4.00
2023-10-16T07:41:12.288Z,4.50
2023-10-16T07:42:12.237Z,4.40
2023-10-16T07:43:12.228Z,4.30
2023-10-16T07:44:12.215Z,5.00
2023-10-16T07:45:12.211Z,4.69
2023-10-16T07:46:12.394Z,5.90
2023-10-16T07:47:12.189Z,6.90
2023-10-16T07:48:12.195Z,5.40
2023-10-16T07:49:12.165Z,8.10
2023-10-16T07:50:12.185Z,5.50
2023-10-16T07:51:12.183Z,5.59
2023-10-16T07:52:12.181Z,6.40
2023-10-16T07:53:12.123Z,5.30
2023-10-16T07:54:12.126Z,4.80
2023-10-16T07:55:12.139Z,8.00
2023-10-16T07:56:12.146Z,7.50
2023-10-16T07:57:12.081Z,8.89
2023-10-16T07:58:12.095Z,6.80
2023-10-16T07:59:12.098Z,11.89
2023-10-16T08:00:12.054Z,11.39
2023-10-16T08:01:12.107Z,11.80
2023-10-16T08:02:12.033Z,7.69
2023-10-16T08:03:12.094Z,5.40
2023-10-16T08:04:12.145Z,5.30
2023-10-16T08:05:12.003Z,5.40
2023-10-16T08:06:11.993Z,4.90
2023-10-16T08:07:11.981Z,6.59
2023-10-16T08:08:11.973Z,6.00
2023-10-16T08:09:13.437Z,7.69
2023-10-16T08:10:11.951Z,7.00
2023-10-16T08:11:11.939Z,5.69
2023-10-16T08:12:11.957Z,4.00
2023-10-16T08:13:11.914Z,6.40
2023-10-16T08:14:11.942Z,5.09
2023-10-16T08:15:11.897Z,4.19
2023-10-16T08:16:12.034Z,7.80
2023-10-16T08:17:12.036Z,7.40
2023-10-16T08:18:11.953Z,10.39
2023-10-16T08:19:11.870Z,37.50
2023-10-16T08:20:11.846Z,4.19
2023-10-16T08:21:11.853Z,3.90
2023-10-16T08:22:11.929Z,13.50
2023-10-16T08:23:11.813Z,4.19
2023-10-16T08:24:13.389Z,3.90
2023-10-16T08:25:11.837Z,3.00
2023-10-16T08:26:11.775Z,4.69
2023-10-16T08:27:11.784Z,10.60
2023-10-16T08:28:11.839Z,3.00
2023-10-16T08:29:11.748Z,2.79
2023-10-16T08:30:11.738Z,5.80
2023-10-16T08:31:11.808Z,4.59
2023-10-16T08:32:11.725Z,2.70
2023-10-16T08:33:11.712Z,4.09
2023-10-16T08:34:11.701Z,3.79
2023-10-16T08:35:11.683Z,2.50
2023-10-16T08:36:11.680Z,2.70
2023-10-16T08:37:11.659Z,2.90
2023-10-16T08:38:11.653Z,3.09
2023-10-16T08:39:11.673Z,3.09
2023-10-16T08:40:11.679Z,2.59
2023-10-16T08:41:11.623Z,2.90
2023-10-16T08:42:11.610Z,3.40
2023-10-16T08:43:11.623Z,4.80
2023-10-16T08:44:12.665Z,4.80
2023-10-16T08:45:11.577Z,3.79
2023-10-16T08:46:11.629Z,3.50
2023-10-16T08:47:11.560Z,2.70
2023-10-16T08:48:11.555Z,2.20
2023-10-16T08:49:11.555Z,3.90
2023-10-16T08:50:11.533Z,2.29
2023-10-16T08:51:11.522Z,2.79
2023-10-16T08:52:11.509Z,2.59
2023-10-16T08:53:11.498Z,3.79
2023-10-16T08:54:11.486Z,3.70
2023-10-16T08:55:11.482Z,3.79
2023-10-16T08:56:11.533Z,4.09
2023-10-16T08:57:13.480Z,2.00
2023-10-16T08:58:11.444Z,2.20
2023-10-16T08:59:11.437Z,3.90
2023-10-16T09:00:11.484Z,2.29
2023-10-16T09:01:11.481Z,2.59
2023-10-16T09:02:11.409Z,3.29
2023-10-16T09:03:11.479Z,2.29
2023-10-16T09:04:11.519Z,2.79
2023-10-16T09:05:11.371Z,2.79
2023-10-16T09:06:11.361Z,2.09
2023-10-16T09:07:11.365Z,3.90
2023-10-16T09:08:11.341Z,2.20
2023-10-16T09:09:11.326Z,4.50
2023-10-16T09:10:11.424Z,3.40
2023-10-16T09:11:11.304Z,3.90
2023-10-16T09:12:11.318Z,5.59
2023-10-16T09:13:11.317Z,8.60
2023-10-16T09:14:11.276Z,6.09
2023-10-16T09:15:11.265Z,4.30
2023-10-16T09:16:11.332Z,3.00
2023-10-16T09:17:11.243Z,3.79
2023-10-16T09:18:11.242Z,6.69
2023-10-16T09:19:11.276Z,4.59
2023-10-16T09:20:11.213Z,3.79
2023-10-16T09:21:11.210Z,4.00
2023-10-16T09:22:11.206Z,4.09
2023-10-16T09:23:11.183Z,4.09
2023-10-16T09:24:11.176Z,3.00
2023-10-16T09:25:14.474Z,4.50
2023-10-16T09:26:12.181Z,2.40
2023-10-16T09:27:11.137Z,3.00
2023-10-16T09:28:11.126Z,2.20
2023-10-16T09:29:11.121Z,3.59
2023-10-16T09:30:11.147Z,3.79
2023-10-16T09:31:13.052Z,2.70
2023-10-16T09:32:11.210Z,2.20
2023-10-16T09:33:11.122Z,2.70
2023-10-16T09:34:11.108Z,2.29
2023-10-16T09:35:11.056Z,4.59
2023-10-16T09:36:11.046Z,2.50
2023-10-16T09:37:11.061Z,4.69
2023-10-16T09:38:11.029Z,2.09
2023-10-16T09:39:11.009Z,2.50
2023-10-16T09:40:23.530Z,2.90
2023-10-16T09:41:12.026Z,2.40
2023-10-16T09:42:10.983Z,2.59
2023-10-16T09:43:10.969Z,2.79
2023-10-16T09:44:10.959Z,3.09
2023-10-16T09:45:11.069Z,3.29
2023-10-16T09:46:10.981Z,2.90
2023-10-16T09:47:10.927Z,2.59
2023-10-16T09:48:11.055Z,3.09
2023-10-16T09:49:10.910Z,1.90
2023-10-16T09:50:10.898Z,2.20
2023-10-16T09:51:10.882Z,2.79
2023-10-16T09:52:10.936Z,2.59
2023-10-16T09:53:10.868Z,3.70
2023-10-16T09:54:10.855Z,2.00
2023-10-16T09:55:10.893Z,3.90
2023-10-16T09:56:10.847Z,3.20
2023-10-16T09:57:10.819Z,3.29
2023-10-16T09:58:10.844Z,1.90
2023-10-16T09:59:10.802Z,3.20
2023-10-16T10:00:10.805Z,4.40
2023-10-16T10:01:10.848Z,3.09
2023-10-16T10:02:11.060Z,2.70
2023-10-16T10:03:10.994Z,2.40
2023-10-16T10:04:10.946Z,1.70
2023-10-16T10:05:10.748Z,2.29
2023-10-16T10:06:10.727Z,2.59
2023-10-16T10:07:10.712Z,2.70
2023-10-16T10:08:10.703Z,3.09
2023-10-16T10:09:10.695Z,2.70
2023-10-16T10:10:10.734Z,2.09
2023-10-16T10:11:22.227Z,2.00
2023-10-16T10:12:11.700Z,3.00
2023-10-16T10:13:10.854Z,3.70
2023-10-16T10:14:10.729Z,4.00
2023-10-16T10:15:10.629Z,2.70
2023-10-16T10:16:10.654Z,1.60
2023-10-16T10:17:10.608Z,1.60
2023-10-16T10:18:10.670Z,1.79
2023-10-16T10:19:10.639Z,4.00
2023-10-16T10:20:10.700Z,3.09
2023-10-16T10:21:10.567Z,1.70
2023-10-16T10:22:10.589Z,2.50
2023-10-16T10:23:10.549Z,2.09
2023-10-16T10:24:10.538Z,2.09
2023-10-16T10:25:18.664Z,2.00
2023-10-16T10:26:11.542Z,1.60
2023-10-16T10:27:10.504Z,2.29
2023-10-16T10:28:10.553Z,2.00
2023-10-16T10:29:10.814Z,3.29
2023-10-16T10:30:10.477Z,2.09
2023-10-16T10:31:10.621Z,3.40
2023-10-16T10:32:10.473Z,4.00
2023-10-16T10:33:10.480Z,2.40
2023-10-16T10:34:10.471Z,1.60
2023-10-16T10:35:10.452Z,1.50
2023-10-16T10:36:10.540Z,3.90
2023-10-16T10:37:10.429Z,1.60
2023-10-16T10:38:10.388Z,1.60
2023-10-16T10:39:10.383Z,3.20
2023-10-16T10:40:10.408Z,1.70
2023-10-16T10:41:10.382Z,2.90
2023-10-16T10:42:11.456Z,1.39
2023-10-16T10:43:10.382Z,2.40
2023-10-16T10:44:13.187Z,4.30
2023-10-16T10:45:11.383Z,2.40
2023-10-16T10:46:10.420Z,2.59
2023-10-16T10:47:10.302Z,1.70
2023-10-16T10:48:10.441Z,4.40
2023-10-16T10:49:10.318Z,4.80
2023-10-16T10:50:10.268Z,1.39
2023-10-16T10:51:10.257Z,2.29
2023-10-16T10:52:10.397Z,4.30
2023-10-16T10:53:10.239Z,1.90
2023-10-16T10:54:10.226Z,0.70
2023-10-16T10:55:10.248Z,2.29
2023-10-16T10:56:10.208Z,2.00
2023-10-16T10:57:10.197Z,2.40
2023-10-16T10:58:10.205Z,2.70
2023-10-16T10:59:10.171Z,3.40
2023-10-16T11:00:10.166Z,2.40
2023-10-16T11:01:10.237Z,1.29
2023-10-16T11:02:12.549Z,2.50
2023-10-16T11:03:10.218Z,1.90
2023-10-16T11:04:10.246Z,1.70
2023-10-16T11:05:10.160Z,3.50
2023-10-16T11:06:10.103Z,2.59
2023-10-16T11:07:10.219Z,2.20
2023-10-16T11:08:10.249Z,2.90
2023-10-16T11:09:10.076Z,0.90
2023-10-16T11:10:10.077Z,2.00
2023-10-16T11:11:10.049Z,1.10
2023-10-16T11:12:10.042Z,2.70
2023-10-16T11:13:10.094Z,1.70
2023-10-16T11:14:10.020Z,1.20
2023-10-16T11:15:10.018Z,2.29
2023-10-16T11:16:10.041Z,4.09
2023-10-16T11:17:09.984Z,2.59
2023-10-16T11:18:10.079Z,1.70
2023-10-16T11:19:09.983Z,2.59
2023-10-16T11:20:09.954Z,1.60
2023-10-16T11:21:09.941Z,2.40
2023-10-16T11:22:09.951Z,1.70
2023-10-16T11:23:09.927Z,2.59
2023-10-16T11:24:10.027Z,1.10
2023-10-16T11:25:09.923Z,2.79
2023-10-16T11:26:09.887Z,1.79
2023-10-16T11:27:09.875Z,1.39
2023-10-16T11:28:09.937Z,1.90
2023-10-16T11:29:09.853Z,1.39
2023-10-16T11:30:09.850Z,1.79
2023-10-16T11:31:12.082Z,1.90
2023-10-16T11:32:09.862Z,2.20
2023-10-16T11:33:09.869Z,2.20
2023-10-16T11:34:09.826Z,1.90
2023-10-16T11:35:09.788Z,1.50
2023-10-16T11:36:09.779Z,2.59
2023-10-16T11:37:09.775Z,1.20
2023-10-16T11:38:09.766Z,2.09
2023-10-16T11:39:09.776Z,2.20
2023-10-16T11:40:09.904Z,3.09
2023-10-16T11:41:09.735Z,0.80
2023-10-16T11:42:09.720Z,2.40
2023-10-16T11:43:09.741Z,1.70
2023-10-16T11:44:09.706Z,1.39
2023-10-16T11:45:09.688Z,0.60
2023-10-16T11:46:09.776Z,2.20
2023-10-16T11:47:09.701Z,1.00
2023-10-16T11:48:09.652Z,1.20
2023-10-16T11:49:09.695Z,3.09
2023-10-16T11:50:09.637Z,2.79
2023-10-16T11:51:09.624Z,1.10
2023-10-16T11:52:09.952Z,0.70
2023-10-16T11:53:09.597Z,1.29
2023-10-16T11:54:09.590Z,1.60
2023-10-16T11:55:09.640Z,2.90
2023-10-16T11:56:09.707Z,0.70
2023-10-16T11:57:09.565Z,3.29
2023-10-16T11:58:09.606Z,1.50
2023-10-16T11:59:09.542Z,1.10
2023-10-16T12:00:09.541Z,0.90
2023-10-16T12:01:19.683Z,1.00
2023-10-16T12:02:10.546Z,1.60
2023-10-16T12:03:09.566Z,1.70
2023-10-16T12:04:09.636Z,0.80
2023-10-16T12:05:09.475Z,0.90
2023-10-16T12:06:09.473Z,1.79
2023-10-16T12:07:09.513Z,5.30
2023-10-16T12:08:09.466Z,1.50
2023-10-16T12:09:09.450Z,1.70
2023-10-16T12:10:09.449Z,1.50
2023-10-16T12:11:09.419Z,0.60
2023-10-16T12:12:09.542Z,1.60
2023-10-16T12:13:09.489Z,2.29
2023-10-16T12:14:09.387Z,0.80
2023-10-16T12:15:09.365Z,1.39
2023-10-16T12:16:14.388Z,1.60
2023-10-16T12:17:10.396Z,2.09
2023-10-16T12:18:09.346Z,0.50
2023-10-16T12:19:09.390Z,1.29
2023-10-16T12:20:09.323Z,1.10
2023-10-16T12:21:09.307Z,1.29
2023-10-16T12:22:09.329Z,1.10
2023-10-16T12:23:09.284Z,1.60
2023-10-16T12:24:09.293Z,0.90
2023-10-16T12:25:09.379Z,1.70
2023-10-16T12:26:09.260Z,1.90
2023-10-16T12:27:09.262Z,4.90
2023-10-16T12:28:09.464Z,1.60
2023-10-16T12:29:09.234Z,2.70
2023-10-16T12:30:09.230Z,2.59
2023-10-16T12:31:09.222Z,4.30
2023-10-16T12:32:09.239Z,3.09
